XXB weather

CLOSED Manchester Woodford Airport
Manchester, England, United Kingdom

Public forecast

Using degrees Celsius for public forecast. Weather courtesy of forecast.io.

METAR (pilot weather report)

Closest report is Manchester Airport, 4.6 nm (8.5 km) WNW. Retrieved 2019/04/21 17:20 UTC (39 minutes ago):

EGCC 211720Z AUTO 20005KT 150V230 9999 NCD 21/04 Q1015 NOSIG

TAF (pilot weather forecast)

Closest forecast is Manchester Airport, 4.6 nm (8.5 km) WNW. Retrieved 2019/04/21 12:00 UTC (6 hours ago):

TAF EGCC 211053Z 2112/2218 17008KT CAVOK PROB30 TEMPO 2202/2208 9000